Latest Weather Observations for Yanco

IDN60801

Issued at 1:32 pm EST Tuesday 27 June 2017 (issued every 30 minutes, with the page automatically refreshed every 10 minutes)

About weather observations | Map of weather stations | Latest weather observations for NSW | Other Formats
Station Details ID: 074037 Name: YANCO AGRICULTURAL INSTITUTE Lat: -34.62 Lon: 146.43 Height: 164.0 m
Data from the previous 72 hours. | See also: Recent months at Yanco
Date/Time
EST
Temp
°C
App
Temp
°C
Dew
Point
°C
Rel
Hum
%
Delta-T
°C
Wind Press
QNH
hPa
Press
MSL
hPa
Rain since
9am
mm
Dir  Spd
km/h
Gust
km/h
Spd
kts
Gust
kts
27/01:30pm 11.8 9.6 5.4 65 3.0 SE 6 9 3 5 - - 0.0
27/01:00pm 11.4 9.3 5.9 69 2.6 SE 6 7 3 4 - - 0.0
27/12:30pm 10.9 8.8 5.7 70 2.4 SE 6 7 3 4 - - 0.0
27/12:00pm 10.4 8.1 5.6 72 2.2 ESE 7 9 4 5 - - 0.0
27/11:30am 9.8 7.5 5.6 75 1.9 E 7 9 4 5 - - 0.0
27/11:00am 9.5 7.4 6.0 79 1.6 E 6 9 3 5 - - 0.0
27/10:30am 8.4 6.1 5.9 84 1.1 ESE 7 9 4 5 - - 0.0
27/10:00am 8.2 6.9 6.2 87 0.9 ESE 2 2 1 1 - - 0.0
27/09:30am 7.6 6.3 6.1 90 0.7 ESE 2 4 1 2 - - 0.0
27/09:00am 7.1 5.0 6.0 93 0.5 ESE 6 7 3 4 - - 0.0
27/08:30am 6.7 4.5 6.0 95 0.3 ESE 7 11 4 6 - - 0.0
27/08:00am 6.5 4.3 6.1 97 0.2 E 7 9 4 5 - - 0.0
27/07:30am 6.3 4.6 6.0 98 0.1 E 4 6 2 3 - - 0.0
27/07:00am 5.7 4.6 5.0 95 0.3 CALM 0 2 0 1 - - 0.0
27/06:30am 6.4 3.8 6.1 98 0.1 E 9 11 5 6 - - 0.0
27/06:00am 5.5 4.3 4.8 95 0.3 CALM 0 2 0 1 - - 0.0
27/05:30am 6.2 4.0 5.5 95 0.3 E 6 7 3 4 - - 0.0
27/05:00am 6.1 5.0 4.9 92 0.5 CALM 0 0 0 0 - - 0.0
27/04:30am 7.0 5.2 5.6 91 0.6 E 4 6 2 3 - - 0.0
27/04:00am 8.1 5.1 6.2 88 0.9 E 11 17 6 9 - - 0.0
27/03:30am 7.7 4.4 6.2 90 0.7 E 13 15 7 8 - - 0.0
27/03:00am 7.4 4.8 6.2 92 0.5 E 9 11 5 6 - - 0.0
27/02:30am 7.4 4.0 6.0 91 0.6 E 13 15 7 8 - - 0.0
27/02:00am 7.3 4.3 6.2 93 0.5 E 11 15 6 8 - - 0.0
27/01:30am 7.1 4.1 6.0 93 0.5 E 11 13 6 7 - - 0.0
27/01:00am 7.3 4.8 6.6 95 0.3 E 9 13 5 7 - - 0.0
27/12:30am 6.8 4.3 6.7 99 0.0 ESE 9 9 5 5 - - 0.0
27/12:00am 5.8 4.8 5.5 98 0.1 CALM 0 2 0 1 - - 0.0
 
Date/Time
EST
Temp
°C
App
Temp
°C
Dew
Point
°C
Rel
Hum
%
Delta-T
°C
Wind Press
QNH
hPa
Press
MSL
hPa
Rain since
9am
mm
Dir  Spd
km/h
Gust
km/h
Spd
kts
Gust
kts
26/11:30pm 5.4 4.1 4.1 91 0.6 CALM 0 2 0 1 - - 0.0
26/11:00pm 7.3 4.7 5.9 91 0.6 SE 9 13 5 7 - - 0.0
26/10:30pm 6.9 4.2 5.7 92 0.5 ESE 9 11 5 6 - - 0.0
26/10:00pm 7.0 4.3 5.5 90 0.7 SE 9 11 5 6 - - 0.0
26/09:30pm 7.3 4.6 5.4 88 0.9 SE 9 11 5 6 - - 0.0
26/09:00pm 8.0 5.7 5.5 84 1.1 SE 7 9 4 5 - - 0.0
26/08:30pm 8.3 5.6 5.6 83 1.2 ESE 9 9 5 5 - - 0.0
26/08:00pm 9.2 6.9 5.8 79 1.6 SSE 7 9 4 5 - - 0.0
26/07:30pm 9.5 7.2 5.9 78 1.7 SSE 7 9 4 5 - - 0.0
26/07:00pm 9.5 6.8 5.5 76 1.8 SSE 9 11 5 6 - - 0.0
26/06:30pm 10.2 7.2 6.0 75 2.0 SSE 11 13 6 7 - - 0.0
26/06:00pm 10.7 8.6 5.9 72 2.2 SW 6 7 3 4 - - 0.0
26/05:30pm 11.9 9.7 6.2 68 2.7 SW 7 9 4 5 - - 0.0
26/05:00pm 12.6 10.1 6.4 66 3.0 SW 9 13 5 7 - - 0.0
26/04:30pm 13.2 10.6 6.3 63 3.3 SW 9 13 5 7 - - 0.0
26/04:00pm 13.6 10.9 5.7 59 3.8 SW 9 13 5 7 - - 0.0
26/03:30pm 14.3 11.3 5.9 57 4.0 SSW 11 15 6 8 - - 0.0
26/03:00pm 14.9 11.8 5.7 54 4.4 SSW 11 19 6 10 - - 0.0
26/02:30pm 14.9 11.8 5.7 54 4.4 W 11 15 6 8 - - 0.0
26/02:00pm 15.2 12.6 6.0 54 4.5 WSW 9 17 5 9 - - 0.0
26/01:30pm 15.1 13.0 6.7 57 4.1 W 7 13 4 7 - - 0.0
26/01:00pm 14.3 11.7 5.9 57 4.0 WSW 9 15 5 8 - - 0.0
26/12:30pm 14.4 12.6 7.2 62 3.6 WNW 6 9 3 5 - - 0.0
26/12:00pm 14.0 12.6 7.3 64 3.3 NW 4 9 2 5 - - 0.0
26/11:30am 12.5 11.1 7.4 71 2.5 NW 4 7 2 4 - - 0.0
26/11:00am 10.7 8.8 6.8 77 1.9 NW 6 7 3 4 - - 0.0
26/10:30am 9.1 7.5 8.2 94 0.4 NNW 6 7 3 4 - - 0.0
26/10:00am 6.7 4.8 6.7 100 0.0 NNW 6 7 3 4 - - 0.0
26/09:30am 5.6 3.8 5.6 100 0.0 NNW 4 6 2 3 - - 0.0
26/09:00am 3.9 1.8 3.9 100 0.0 NNW 4 6 2 3 - - 0.2
26/08:30am 3.2 1.0 3.2 100 0.0 NNW 4 6 2 3 - - 0.2
26/08:00am 2.4 -0.4 2.3 99 0.0 NNW 6 6 3 3 - - 0.2
26/07:30am 2.3 -0.1 2.2 99 0.0 NNW 4 6 2 3 - - 0.2
26/07:00am 2.9 0.6 2.8 99 0.0 NNW 4 4 2 2 - - 0.2
26/06:30am 3.3 0.7 3.2 99 0.0 NNW 6 7 3 4 - - 0.2
26/06:00am 3.2 0.6 3.1 99 0.0 NNW 6 6 3 3 - - 0.0
26/05:30am 3.4 0.8 3.3 99 0.0 NNW 6 6 3 3 - - 0.0
26/05:00am 4.3 2.3 4.2 99 0.0 NNW 4 6 2 3 - - 0.0
26/04:30am 4.2 2.5 4.1 99 0.0 NNW 2 4 1 2 - - 0.0
26/04:00am 4.4 2.0 4.3 99 0.0 NNW 6 6 3 3 - - 0.0
26/03:30am 4.5 2.1 4.4 99 0.0 NNW 6 7 3 4 - - 0.0
26/03:00am 5.8 4.4 5.7 99 0.0 SSW 2 4 1 2 - - 0.0
26/02:30am 5.7 3.9 5.6 99 0.0 SSW 4 6 2 3 - - 0.0
26/02:00am 6.0 5.0 5.7 98 0.1 CALM 0 0 0 0 - - 0.0
26/01:30am 6.3 5.3 5.7 96 0.3 CALM 0 0 0 0 - - 0.0
26/01:00am 6.7 5.8 6.0 95 0.3 CALM 0 0 0 0 - - 0.0
26/12:30am 6.8 5.4 5.4 91 0.6 SSW 2 4 1 2 - - 0.0
26/12:00am 7.4 6.2 6.3 93 0.5 SSW 2 4 1 2 - - 0.0
 
Date/Time
EST
Temp
°C
App
Temp
°C
Dew
Point
°C
Rel
Hum
%
Delta-T
°C
Wind Press
QNH
hPa
Press
MSL
hPa
Rain since
9am
mm
Dir  Spd
km/h
Gust
km/h
Spd
kts
Gust
kts
25/11:30pm 7.5 5.4 6.0 90 0.7 SSW 6 6 3 3 - - 0.0
25/11:00pm 8.1 6.4 6.1 87 0.9 SSW 4 6 2 3 - - 0.0
25/10:30pm 8.4 6.8 6.4 87 0.9 SSW 4 4 2 2 - - 0.0
25/10:00pm 8.6 7.0 6.4 86 1.0 SSW 4 4 2 2 - - 0.0
25/09:30pm 9.0 7.8 6.3 83 1.3 SSW 2 4 1 2 - - 0.0
25/09:00pm 9.5 8.2 6.2 80 1.5 SSW 2 4 1 2 - - 0.0
25/08:30pm 10.2 9.4 6.4 77 1.8 CALM 0 2 0 1 - - 0.0
25/08:00pm 10.6 8.5 5.8 72 2.2 SSW 6 6 3 3 - - 0.0
25/07:30pm 11.6 9.9 6.1 69 2.6 S 4 6 2 3 - - 0.0
25/07:00pm 11.3 9.9 5.4 67 2.7 S 2 6 1 3 - - 0.0
25/06:30pm 12.6 10.4 6.2 65 3.1 S 7 7 4 4 - - 0.0
25/06:00pm 12.8 11.3 6.6 66 3.0 SSW 4 7 2 4 - - 0.0
25/05:30pm 12.5 10.8 6.1 65 3.0 SSW 4 6 2 3 - - 0.0
25/05:00pm 13.7 11.7 6.3 61 3.6 W 6 6 3 3 - - 0.0
25/04:30pm 14.8 12.6 6.1 56 4.2 W 7 9 4 5 - - 0.0
25/04:00pm 15.6 13.0 6.3 54 4.5 WSW 9 13 5 7 - - 0.0
25/03:30pm 15.6 12.6 5.8 52 4.7 W 11 15 6 8 - - 0.0
25/03:00pm 15.2 12.6 6.0 54 4.5 SW 9 13 5 7 - - 0.0
25/02:30pm 15.2 13.3 4.9 50 4.9 NW 4 6 2 3 - - 0.0
25/02:00pm 15.2 12.7 4.9 50 4.9 WNW 7 13 4 7 - - 0.0
25/01:30pm 15.8 12.9 4.5 47 5.3 NNW 9 17 5 9 - - 0.0
25/01:00pm 15.7 12.7 4.1 46 5.4 N 9 17 5 9 - - 0.0
25/12:30pm 15.0 11.1 3.5 46 5.3 N 13 19 7 10 - - 0.0
25/12:00pm 14.7 10.8 3.5 47 5.1 N 13 20 7 11 - - 0.0
25/11:30am 13.8 11.1 3.9 51 4.5 N 7 11 4 6 - - 0.0
25/11:00am 12.1 9.6 4.6 60 3.4 N 7 11 4 6 - - 0.0
25/10:30am 11.1 7.6 3.6 60 3.3 N 11 19 6 10 - - 0.0
25/10:00am 10.0 7.9 4.0 66 2.7 N 4 6 2 3 - - 0.0
25/09:30am 9.2 6.7 3.8 69 2.4 N 6 7 3 4 - - 0.0
25/09:00am 7.2 5.9 4.2 81 1.3 CALM 0 0 0 0 - - 0.0
25/08:30am 6.8 4.3 3.6 80 1.4 ENE 6 9 3 5 - - 0.0
25/08:00am 5.9 3.7 3.4 84 1.1 ENE 4 6 2 3 - - 0.0
25/07:30am 5.1 1.9 2.8 85 0.9 ENE 9 13 5 7 - - 0.0
25/07:00am 4.9 1.3 2.8 86 0.9 ENE 11 15 6 8 - - 0.0
25/06:30am 5.2 2.4 2.9 85 1.0 ENE 7 9 4 5 - - 0.0
25/06:00am 4.7 2.0 2.7 87 0.8 ENE 6 7 3 4 - - 0.0
25/05:30am 3.7 0.8 1.4 85 0.9 ENE 6 7 3 4 - - 0.0
25/05:00am 4.6 1.4 2.8 88 0.7 ENE 9 9 5 5 - - 0.0
25/04:30am 4.0 2.4 2.7 91 0.5 CALM 0 2 0 1 - - 0.0
25/04:00am 2.9 1.0 0.5 84 0.9 CALM 0 0 0 0 - - 0.0
25/03:30am 4.5 1.6 2.4 86 0.9 ENE 7 11 4 6 - - 0.0
25/03:00am 5.3 2.3 2.1 80 1.3 ENE 7 9 4 5 - - 0.0
25/02:30am 4.5 2.5 2.5 87 0.8 ENE 2 4 1 2 - - 0.0
25/02:00am 4.8 2.9 2.7 86 0.9 ENE 2 4 1 2 - - 0.0
25/01:30am 5.3 2.8 3.5 88 0.8 ENE 6 6 3 3 - - 0.0
25/01:00am 3.8 2.2 2.3 90 0.6 CALM 0 0 0 0 - - 0.0
25/12:30am 3.9 2.1 1.4 84 1.0 CALM 0 2 0 1 - - 0.0
25/12:00am 5.7 2.6 3.5 86 0.9 S 9 11 5 6 - - 0.0
 
Date/Time
EST
Temp
°C
App
Temp
°C
Dew
Point
°C
Rel
Hum
%
Delta-T
°C
Wind Press
QNH
hPa
Press
MSL
hPa
Rain since
9am
mm
Dir  Spd
km/h
Gust
km/h
Spd
kts
Gust
kts
24/11:30pm 4.9 2.2 2.8 86 0.9 SW 6 7 3 4 - - 0.0
24/11:00pm 5.9 4.5 3.6 85 1.0 CALM 0 0 0 0 - - 0.0
24/10:30pm 6.0 4.2 3.5 84 1.1 SW 2 2 1 1 - - 0.0
24/10:00pm 5.9 4.4 2.9 81 1.3 CALM 0 2 0 1 - - 0.0
24/09:30pm 6.4 3.6 3.4 81 1.3 SW 7 7 4 4 - - 0.0
24/09:00pm 7.0 4.5 3.6 79 1.5 SW 6 7 3 4 - - 0.0
24/08:30pm 7.4 4.9 3.6 77 1.6 SW 6 6 3 3 - - 0.0
24/08:00pm 7.4 4.8 3.3 75 1.8 SW 6 7 3 4 - - 0.0
24/07:30pm 7.9 5.4 3.6 74 1.9 SW 6 7 3 4 - - 0.0
24/07:00pm 8.6 6.1 3.8 72 2.1 SW 6 7 3 4 - - 0.0
24/06:30pm 8.8 6.1 3.8 71 2.2 SW 7 7 4 4 - - 0.0
24/06:00pm 9.8 7.8 4.6 70 2.3 SW 4 6 2 3 - - 0.0
24/05:30pm 10.5 8.5 4.2 65 2.8 SW 4 4 2 2 - - 0.0
24/05:00pm 12.2 9.7 4.7 60 3.5 SW 7 9 4 5 - - 0.0
24/04:30pm 14.1 11.3 5.2 55 4.2 WSW 9 15 5 8 - - 0.0
24/04:00pm 14.3 10.4 5.4 55 4.2 WSW 15 19 8 10 - - 0.0
24/03:30pm 14.8 10.2 5.6 54 4.4 WSW 19 24 10 13 - - 0.0
24/03:00pm 15.7 11.2 5.9 52 4.8 WSW 19 24 10 13 - - 0.0
24/02:30pm 15.7 11.5 5.6 51 4.9 WSW 17 24 9 13 - - 0.0
24/02:00pm 15.5 10.9 5.4 51 4.8 WSW 19 26 10 14 - - 0.0

Other Formats:

Comma delimited format used in spreadsheet applications
http://www.bom.gov.au/fwo/IDN60801/IDN60801.95705.axf

JavaScript Object Notation format (JSON) in row-major order
http://www.bom.gov.au/fwo/IDN60801/IDN60801.95705.json